sensor_id;sensor_type;location;lat;lon;timestamp;P1;durP1;ratioP1;P2;durP2;ratioP2
23670;SDS011;12012;51.998;7.614;2023-05-07T00:01:13;7.03;;;6.20;;
23670;SDS011;12012;51.998;7.614;2023-05-07T00:03:38;6.38;;;5.78;;
23670;SDS011;12012;51.998;7.614;2023-05-07T00:06:04;7.05;;;6.45;;
23670;SDS011;12012;51.998;7.614;2023-05-07T00:08:30;7.65;;;6.85;;
23670;SDS011;12012;51.998;7.614;2023-05-07T00:10:55;10.45;;;9.30;;
23670;SDS011;12012;51.998;7.614;2023-05-07T00:13:21;8.10;;;6.70;;
23670;SDS011;12012;51.998;7.614;2023-05-07T00:15:46;8.60;;;7.28;;
23670;SDS011;12012;51.998;7.614;2023-05-07T00:18:12;9.73;;;8.82;;
23670;SDS011;12012;51.998;7.614;2023-05-07T00:20:37;8.63;;;7.72;;
23670;SDS011;12012;51.998;7.614;2023-05-07T00:23:03;12.05;;;10.85;;
23670;SDS011;12012;51.998;7.614;2023-05-07T00:25:28;13.27;;;12.07;;
23670;SDS011;12012;51.998;7.614;2023-05-07T00:27:54;7.80;;;6.97;;
23670;SDS011;12012;51.998;7.614;2023-05-07T00:30:20;9.43;;;8.52;;
23670;SDS011;12012;51.998;7.614;2023-05-07T00:32:45;9.15;;;8.25;;
23670;SDS011;12012;51.998;7.614;2023-05-07T00:35:11;8.30;;;7.57;;
23670;SDS011;12012;51.998;7.614;2023-05-07T00:37:37;9.13;;;7.85;;
23670;SDS011;12012;51.998;7.614;2023-05-07T00:40:03;7.70;;;6.88;;
23670;SDS011;12012;51.998;7.614;2023-05-07T00:42:32;10.55;;;9.02;;
23670;SDS011;12012;51.998;7.614;2023-05-07T00:44:58;9.88;;;8.75;;
23670;SDS011;12012;51.998;7.614;2023-05-07T00:47:24;10.45;;;9.15;;
23670;SDS011;12012;51.998;7.614;2023-05-07T00:49:50;8.18;;;7.38;;
23670;SDS011;12012;51.998;7.614;2023-05-07T00:52:16;9.00;;;8.07;;
23670;SDS011;12012;51.998;7.614;2023-05-07T00:54:44;10.75;;;9.30;;
23670;SDS011;12012;51.998;7.614;2023-05-07T00:57:10;8.75;;;7.85;;
23670;SDS011;12012;51.998;7.614;2023-05-07T00:59:36;13.02;;;10.32;;
23670;SDS011;12012;51.998;7.614;2023-05-07T01:02:02;8.68;;;7.78;;
23670;SDS011;12012;51.998;7.614;2023-05-07T01:04:28;9.88;;;8.65;;
23670;SDS011;12012;51.998;7.614;2023-05-07T01:06:55;10.10;;;9.00;;
23670;SDS011;12012;51.998;7.614;2023-05-07T01:09:21;10.73;;;9.10;;
23670;SDS011;12012;51.998;7.614;2023-05-07T01:11:49;11.73;;;10.52;;
23670;SDS011;12012;51.998;7.614;2023-05-07T01:14:15;10.38;;;9.07;;
23670;SDS011;12012;51.998;7.614;2023-05-07T01:16:41;11.95;;;10.70;;
23670;SDS011;12012;51.998;7.614;2023-05-07T01:19:10;13.70;;;10.40;;
23670;SDS011;12012;51.998;7.614;2023-05-07T01:21:41;12.18;;;9.82;;
23670;SDS011;12012;51.998;7.614;2023-05-07T01:24:11;11.25;;;10.05;;
23670;SDS011;12012;51.998;7.614;2023-05-07T01:26:37;8.88;;;6.97;;
23670;SDS011;12012;51.998;7.614;2023-05-07T01:29:05;9.52;;;8.52;;
23670;SDS011;12012;51.998;7.614;2023-05-07T01:31:30;12.98;;;11.27;;
23670;SDS011;12012;51.998;7.614;2023-05-07T01:33:57;12.73;;;11.38;;
23670;SDS011;12012;51.998;7.614;2023-05-07T01:36:24;13.77;;;12.30;;
23670;SDS011;12012;51.998;7.614;2023-05-07T01:38:52;15.18;;;12.77;;
23670;SDS011;12012;51.998;7.614;2023-05-07T01:41:18;14.88;;;12.80;;
23670;SDS011;12012;51.998;7.614;2023-05-07T01:43:44;16.60;;;13.63;;
23670;SDS011;12012;51.998;7.614;2023-05-07T01:46:11;19.98;;;14.90;;
23670;SDS011;12012;51.998;7.614;2023-05-07T01:48:38;19.23;;;15.70;;
23670;SDS011;12012;51.998;7.614;2023-05-07T01:51:04;16.90;;;14.18;;
23670;SDS011;12012;51.998;7.614;2023-05-07T01:53:35;18.55;;;14.23;;
23670;SDS011;12012;51.998;7.614;2023-05-07T01:56:04;19.90;;;15.55;;
23670;SDS011;12012;51.998;7.614;2023-05-07T01:58:30;22.92;;;17.55;;
23670;SDS011;12012;51.998;7.614;2023-05-07T02:00:56;20.25;;;16.10;;
23670;SDS011;12012;51.998;7.614;2023-05-07T02:03:21;20.45;;;15.82;;
23670;SDS011;12012;51.998;7.614;2023-05-07T02:05:47;25.35;;;18.05;;
23670;SDS011;12012;51.998;7.614;2023-05-07T02:08:12;25.23;;;19.30;;
23670;SDS011;12012;51.998;7.614;2023-05-07T02:10:38;19.45;;;15.00;;
23670;SDS011;12012;51.998;7.614;2023-05-07T02:13:04;19.15;;;15.35;;
23670;SDS011;12012;51.998;7.614;2023-05-07T02:15:29;22.00;;;14.70;;
23670;SDS011;12012;51.998;7.614;2023-05-07T02:17:59;23.80;;;19.33;;
23670;SDS011;12012;51.998;7.614;2023-05-07T02:20:26;27.67;;;21.43;;
23670;SDS011;12012;51.998;7.614;2023-05-07T02:22:52;18.75;;;14.85;;
23670;SDS011;12012;51.998;7.614;2023-05-07T02:25:17;21.40;;;17.48;;
23670;SDS011;12012;51.998;7.614;2023-05-07T02:27:43;21.50;;;17.25;;
23670;SDS011;12012;51.998;7.614;2023-05-07T02:30:09;20.92;;;17.15;;
23670;SDS011;12012;51.998;7.614;2023-05-07T02:32:35;17.58;;;15.45;;
23670;SDS011;12012;51.998;7.614;2023-05-07T02:35:00;19.63;;;15.13;;
23670;SDS011;12012;51.998;7.614;2023-05-07T02:37:26;21.08;;;16.40;;
23670;SDS011;12012;51.998;7.614;2023-05-07T02:39:52;23.38;;;18.75;;
23670;SDS011;12012;51.998;7.614;2023-05-07T02:42:17;22.90;;;18.23;;
23670;SDS011;12012;51.998;7.614;2023-05-07T02:44:43;23.23;;;17.75;;
23670;SDS011;12012;51.998;7.614;2023-05-07T02:47:08;22.00;;;17.23;;
23670;SDS011;12012;51.998;7.614;2023-05-07T02:49:34;26.42;;;22.45;;
23670;SDS011;12012;51.998;7.614;2023-05-07T02:52:00;24.73;;;19.98;;
23670;SDS011;12012;51.998;7.614;2023-05-07T02:54:25;23.33;;;20.00;;
23670;SDS011;12012;51.998;7.614;2023-05-07T02:56:51;22.42;;;17.23;;
23670;SDS011;12012;51.998;7.614;2023-05-07T02:59:16;21.10;;;18.00;;
23670;SDS011;12012;51.998;7.614;2023-05-07T03:01:42;26.30;;;19.98;;
23670;SDS011;12012;51.998;7.614;2023-05-07T03:04:10;28.02;;;19.50;;
23670;SDS011;12012;51.998;7.614;2023-05-07T03:06:36;19.35;;;15.45;;
23670;SDS011;12012;51.998;7.614;2023-05-07T03:09:01;24.02;;;19.25;;
23670;SDS011;12012;51.998;7.614;2023-05-07T03:11:27;18.80;;;15.05;;
23670;SDS011;12012;51.998;7.614;2023-05-07T03:13:53;26.52;;;21.08;;
23670;SDS011;12012;51.998;7.614;2023-05-07T03:16:19;25.92;;;20.45;;
23670;SDS011;12012;51.998;7.614;2023-05-07T03:18:45;21.20;;;17.55;;
23670;SDS011;12012;51.998;7.614;2023-05-07T03:21:10;21.83;;;17.70;;
23670;SDS011;12012;51.998;7.614;2023-05-07T03:23:36;26.75;;;19.83;;
23670;SDS011;12012;51.998;7.614;2023-05-07T03:26:01;22.10;;;18.85;;
23670;SDS011;12012;51.998;7.614;2023-05-07T03:28:27;26.38;;;22.00;;
23670;SDS011;12012;51.998;7.614;2023-05-07T03:30:52;23.40;;;20.27;;
23670;SDS011;12012;51.998;7.614;2023-05-07T03:33:18;27.30;;;22.25;;
23670;SDS011;12012;51.998;7.614;2023-05-07T03:35:43;21.40;;;17.08;;
23670;SDS011;12012;51.998;7.614;2023-05-07T03:38:09;25.77;;;19.23;;
23670;SDS011;12012;51.998;7.614;2023-05-07T03:40:35;23.67;;;17.75;;
23670;SDS011;12012;51.998;7.614;2023-05-07T03:43:00;24.05;;;20.08;;
23670;SDS011;12012;51.998;7.614;2023-05-07T03:45:26;24.60;;;16.65;;
23670;SDS011;12012;51.998;7.614;2023-05-07T03:47:51;23.30;;;17.90;;
23670;SDS011;12012;51.998;7.614;2023-05-07T03:50:17;23.92;;;19.55;;
23670;SDS011;12012;51.998;7.614;2023-05-07T03:52:42;22.02;;;17.52;;
23670;SDS011;12012;51.998;7.614;2023-05-07T03:55:08;26.13;;;19.27;;
23670;SDS011;12012;51.998;7.614;2023-05-07T03:57:34;22.95;;;17.63;;
23670;SDS011;12012;51.998;7.614;2023-05-07T04:00:00;26.20;;;21.05;;
23670;SDS011;12012;51.998;7.614;2023-05-07T04:02:25;24.23;;;20.58;;
23670;SDS011;12012;51.998;7.614;2023-05-07T04:04:51;22.65;;;18.42;;
23670;SDS011;12012;51.998;7.614;2023-05-07T04:07:17;27.30;;;23.08;;
23670;SDS011;12012;51.998;7.614;2023-05-07T04:09:42;26.13;;;20.58;;
23670;SDS011;12012;51.998;7.614;2023-05-07T04:12:08;20.58;;;17.58;;
23670;SDS011;12012;51.998;7.614;2023-05-07T04:14:33;26.55;;;21.67;;
23670;SDS011;12012;51.998;7.614;2023-05-07T04:16:59;22.73;;;20.08;;
23670;SDS011;12012;51.998;7.614;2023-05-07T04:19:25;24.45;;;18.77;;
23670;SDS011;12012;51.998;7.614;2023-05-07T04:21:50;26.73;;;18.17;;
23670;SDS011;12012;51.998;7.614;2023-05-07T04:24:16;25.02;;;19.58;;
23670;SDS011;12012;51.998;7.614;2023-05-07T04:26:41;24.17;;;15.93;;
23670;SDS011;12012;51.998;7.614;2023-05-07T04:29:07;23.85;;;20.10;;
23670;SDS011;12012;51.998;7.614;2023-05-07T04:31:33;23.63;;;17.52;;
23670;SDS011;12012;51.998;7.614;2023-05-07T04:33:58;23.83;;;18.35;;
23670;SDS011;12012;51.998;7.614;2023-05-07T04:36:24;22.55;;;16.77;;
23670;SDS011;12012;51.998;7.614;2023-05-07T04:38:54;23.15;;;18.95;;
23670;SDS011;12012;51.998;7.614;2023-05-07T04:41:19;22.52;;;17.95;;
23670;SDS011;12012;51.998;7.614;2023-05-07T04:43:45;24.52;;;18.85;;
23670;SDS011;12012;51.998;7.614;2023-05-07T04:46:11;21.17;;;17.70;;
23670;SDS011;12012;51.998;7.614;2023-05-07T04:48:36;26.73;;;21.08;;
23670;SDS011;12012;51.998;7.614;2023-05-07T04:51:02;22.45;;;17.20;;
23670;SDS011;12012;51.998;7.614;2023-05-07T04:53:28;22.05;;;18.45;;
23670;SDS011;12012;51.998;7.614;2023-05-07T04:55:56;25.98;;;21.67;;
23670;SDS011;12012;51.998;7.614;2023-05-07T04:58:22;26.33;;;20.90;;
23670;SDS011;12012;51.998;7.614;2023-05-07T05:00:48;21.95;;;18.52;;
23670;SDS011;12012;51.998;7.614;2023-05-07T05:03:14;28.23;;;23.20;;
23670;SDS011;12012;51.998;7.614;2023-05-07T05:05:40;32.10;;;22.30;;
23670;SDS011;12012;51.998;7.614;2023-05-07T05:08:05;25.48;;;18.65;;
23670;SDS011;12012;51.998;7.614;2023-05-07T05:10:31;25.52;;;17.65;;
23670;SDS011;12012;51.998;7.614;2023-05-07T05:12:57;23.33;;;19.27;;
23670;SDS011;12012;51.998;7.614;2023-05-07T05:15:22;26.38;;;20.83;;
23670;SDS011;12012;51.998;7.614;2023-05-07T05:17:48;28.13;;;23.50;;
23670;SDS011;12012;51.998;7.614;2023-05-07T05:20:13;26.80;;;21.65;;
23670;SDS011;12012;51.998;7.614;2023-05-07T05:22:40;30.02;;;23.95;;
23670;SDS011;12012;51.998;7.614;2023-05-07T05:25:07;32.05;;;25.30;;
23670;SDS011;12012;51.998;7.614;2023-05-07T05:27:32;27.70;;;22.05;;
23670;SDS011;12012;51.998;7.614;2023-05-07T05:29:58;30.40;;;22.52;;
23670;SDS011;12012;51.998;7.614;2023-05-07T05:32:24;25.95;;;19.38;;
23670;SDS011;12012;51.998;7.614;2023-05-07T05:34:50;25.48;;;20.77;;
23670;SDS011;12012;51.998;7.614;2023-05-07T05:37:16;25.00;;;19.70;;
23670;SDS011;12012;51.998;7.614;2023-05-07T05:39:41;26.52;;;21.58;;
23670;SDS011;12012;51.998;7.614;2023-05-07T05:42:07;25.60;;;19.08;;
23670;SDS011;12012;51.998;7.614;2023-05-07T05:44:33;23.67;;;19.08;;
23670;SDS011;12012;51.998;7.614;2023-05-07T05:46:58;25.52;;;19.65;;
23670;SDS011;12012;51.998;7.614;2023-05-07T05:49:24;27.70;;;20.13;;
23670;SDS011;12012;51.998;7.614;2023-05-07T05:51:50;25.00;;;17.60;;
23670;SDS011;12012;51.998;7.614;2023-05-07T05:54:16;25.50;;;21.65;;
23670;SDS011;12012;51.998;7.614;2023-05-07T05:56:41;24.98;;;19.67;;
23670;SDS011;12012;51.998;7.614;2023-05-07T05:59:07;30.58;;;20.63;;
23670;SDS011;12012;51.998;7.614;2023-05-07T06:01:33;22.23;;;17.65;;
23670;SDS011;12012;51.998;7.614;2023-05-07T06:03:58;30.05;;;22.30;;
23670;SDS011;12012;51.998;7.614;2023-05-07T06:06:24;23.52;;;18.02;;
23670;SDS011;12012;51.998;7.614;2023-05-07T06:08:50;22.42;;;17.60;;
23670;SDS011;12012;51.998;7.614;2023-05-07T06:11:16;21.77;;;17.15;;
23670;SDS011;12012;51.998;7.614;2023-05-07T06:13:41;22.77;;;18.13;;
23670;SDS011;12012;51.998;7.614;2023-05-07T06:16:07;24.25;;;19.63;;
23670;SDS011;12012;51.998;7.614;2023-05-07T06:18:32;22.20;;;17.48;;
23670;SDS011;12012;51.998;7.614;2023-05-07T06:20:58;23.95;;;18.17;;
23670;SDS011;12012;51.998;7.614;2023-05-07T06:23:24;19.55;;;16.05;;
23670;SDS011;12012;51.998;7.614;2023-05-07T06:25:49;23.20;;;18.90;;
23670;SDS011;12012;51.998;7.614;2023-05-07T06:28:16;21.05;;;16.15;;
23670;SDS011;12012;51.998;7.614;2023-05-07T06:30:41;20.52;;;16.88;;
23670;SDS011;12012;51.998;7.614;2023-05-07T06:33:07;24.80;;;18.83;;
23670;SDS011;12012;51.998;7.614;2023-05-07T06:35:33;21.25;;;17.60;;
23670;SDS011;12012;51.998;7.614;2023-05-07T06:37:59;26.42;;;19.88;;
23670;SDS011;12012;51.998;7.614;2023-05-07T06:40:25;23.88;;;20.00;;
23670;SDS011;12012;51.998;7.614;2023-05-07T06:42:51;20.23;;;14.85;;
23670;SDS011;12012;51.998;7.614;2023-05-07T06:45:16;23.98;;;18.35;;
23670;SDS011;12012;51.998;7.614;2023-05-07T06:47:42;22.98;;;19.25;;
23670;SDS011;12012;51.998;7.614;2023-05-07T06:50:08;18.52;;;15.55;;
23670;SDS011;12012;51.998;7.614;2023-05-07T06:52:34;27.45;;;21.00;;
23670;SDS011;12012;51.998;7.614;2023-05-07T06:55:00;24.15;;;19.45;;
23670;SDS011;12012;51.998;7.614;2023-05-07T06:57:26;24.48;;;20.17;;
23670;SDS011;12012;51.998;7.614;2023-05-07T06:59:51;22.95;;;17.75;;
23670;SDS011;12012;51.998;7.614;2023-05-07T07:02:17;26.27;;;21.30;;
23670;SDS011;12012;51.998;7.614;2023-05-07T07:04:43;23.95;;;18.48;;
23670;SDS011;12012;51.998;7.614;2023-05-07T07:07:09;20.27;;;16.77;;
23670;SDS011;12012;51.998;7.614;2023-05-07T07:09:35;22.70;;;16.60;;
23670;SDS011;12012;51.998;7.614;2023-05-07T07:12:01;21.02;;;16.85;;
23670;SDS011;12012;51.998;7.614;2023-05-07T07:14:26;19.85;;;16.20;;
23670;SDS011;12012;51.998;7.614;2023-05-07T07:16:52;22.05;;;17.88;;
23670;SDS011;12012;51.998;7.614;2023-05-07T07:19:17;24.08;;;19.30;;
23670;SDS011;12012;51.998;7.614;2023-05-07T07:21:45;20.05;;;17.33;;
23670;SDS011;12012;51.998;7.614;2023-05-07T07:24:10;21.75;;;17.65;;
23670;SDS011;12012;51.998;7.614;2023-05-07T07:26:36;21.83;;;18.88;;
23670;SDS011;12012;51.998;7.614;2023-05-07T07:29:02;17.20;;;14.98;;
23670;SDS011;12012;51.998;7.614;2023-05-07T07:31:27;23.63;;;18.75;;
23670;SDS011;12012;51.998;7.614;2023-05-07T07:33:53;25.48;;;19.98;;
23670;SDS011;12012;51.998;7.614;2023-05-07T07:36:18;20.08;;;15.98;;
23670;SDS011;12012;51.998;7.614;2023-05-07T07:38:44;21.63;;;17.95;;
23670;SDS011;12012;51.998;7.614;2023-05-07T07:41:09;24.63;;;17.70;;
23670;SDS011;12012;51.998;7.614;2023-05-07T07:43:35;22.58;;;18.42;;
23670;SDS011;12012;51.998;7.614;2023-05-07T07:46:01;21.42;;;15.50;;
23670;SDS011;12012;51.998;7.614;2023-05-07T07:48:26;22.73;;;18.88;;
23670;SDS011;12012;51.998;7.614;2023-05-07T07:50:52;22.10;;;17.63;;
23670;SDS011;12012;51.998;7.614;2023-05-07T07:53:18;23.08;;;18.70;;
23670;SDS011;12012;51.998;7.614;2023-05-07T07:55:43;24.48;;;19.60;;
23670;SDS011;12012;51.998;7.614;2023-05-07T07:58:09;17.63;;;15.27;;
23670;SDS011;12012;51.998;7.614;2023-05-07T08:00:35;23.27;;;19.00;;
23670;SDS011;12012;51.998;7.614;2023-05-07T08:03:01;24.15;;;19.50;;
23670;SDS011;12012;51.998;7.614;2023-05-07T08:05:28;21.45;;;17.90;;
23670;SDS011;12012;51.998;7.614;2023-05-07T08:07:53;24.48;;;18.63;;
23670;SDS011;12012;51.998;7.614;2023-05-07T08:10:19;18.80;;;14.68;;
23670;SDS011;12012;51.998;7.614;2023-05-07T08:12:47;17.27;;;15.00;;
23670;SDS011;12012;51.998;7.614;2023-05-07T08:15:16;21.30;;;16.30;;
23670;SDS011;12012;51.998;7.614;2023-05-07T08:17:42;18.70;;;15.85;;
23670;SDS011;12012;51.998;7.614;2023-05-07T08:20:08;23.73;;;17.77;;
23670;SDS011;12012;51.998;7.614;2023-05-07T08:22:34;20.63;;;17.85;;
23670;SDS011;12012;51.998;7.614;2023-05-07T08:25:01;19.55;;;16.08;;
23670;SDS011;12012;51.998;7.614;2023-05-07T08:27:27;21.48;;;16.85;;
23670;SDS011;12012;51.998;7.614;2023-05-07T08:29:53;17.20;;;14.15;;
23670;SDS011;12012;51.998;7.614;2023-05-07T08:32:18;24.08;;;16.92;;
23670;SDS011;12012;51.998;7.614;2023-05-07T08:34:44;18.27;;;15.98;;
23670;SDS011;12012;51.998;7.614;2023-05-07T08:37:10;19.83;;;16.80;;
23670;SDS011;12012;51.998;7.614;2023-05-07T08:39:35;21.15;;;16.83;;
23670;SDS011;12012;51.998;7.614;2023-05-07T08:42:01;19.55;;;17.00;;
23670;SDS011;12012;51.998;7.614;2023-05-07T08:44:34;16.90;;;12.77;;
23670;SDS011;12012;51.998;7.614;2023-05-07T08:47:00;17.15;;;12.38;;
23670;SDS011;12012;51.998;7.614;2023-05-07T08:49:29;16.75;;;14.63;;
23670;SDS011;12012;51.998;7.614;2023-05-07T08:51:55;17.40;;;15.60;;
23670;SDS011;12012;51.998;7.614;2023-05-07T08:54:21;22.63;;;17.33;;
23670;SDS011;12012;51.998;7.614;2023-05-07T08:56:47;16.65;;;14.73;;
23670;SDS011;12012;51.998;7.614;2023-05-07T08:59:13;16.48;;;13.98;;
23670;SDS011;12012;51.998;7.614;2023-05-07T09:01:38;21.13;;;15.77;;
23670;SDS011;12012;51.998;7.614;2023-05-07T09:04:04;17.02;;;14.88;;
23670;SDS011;12012;51.998;7.614;2023-05-07T09:06:31;15.75;;;11.90;;
23670;SDS011;12012;51.998;7.614;2023-05-07T09:08:57;16.30;;;12.95;;
23670;SDS011;12012;51.998;7.614;2023-05-07T09:11:26;18.10;;;14.93;;
23670;SDS011;12012;51.998;7.614;2023-05-07T09:13:55;17.90;;;15.13;;
23670;SDS011;12012;51.998;7.614;2023-05-07T09:16:21;16.77;;;13.50;;
23670;SDS011;12012;51.998;7.614;2023-05-07T09:18:48;18.23;;;14.25;;
23670;SDS011;12012;51.998;7.614;2023-05-07T09:21:17;17.45;;;14.48;;
23670;SDS011;12012;51.998;7.614;2023-05-07T09:23:43;14.80;;;12.20;;
23670;SDS011;12012;51.998;7.614;2023-05-07T09:26:09;19.17;;;16.27;;
23670;SDS011;12012;51.998;7.614;2023-05-07T09:28:40;15.75;;;14.10;;
23670;SDS011;12012;51.998;7.614;2023-05-07T09:31:06;19.42;;;15.00;;
23670;SDS011;12012;51.998;7.614;2023-05-07T09:33:32;14.93;;;13.32;;
23670;SDS011;12012;51.998;7.614;2023-05-07T09:35:58;16.92;;;12.75;;
23670;SDS011;12012;51.998;7.614;2023-05-07T09:38:28;16.33;;;13.98;;
23670;SDS011;12012;51.998;7.614;2023-05-07T09:43:34;13.93;;;11.93;;
23670;SDS011;12012;51.998;7.614;2023-05-07T09:46:02;14.98;;;11.00;;
23670;SDS011;12012;51.998;7.614;2023-05-07T09:48:30;14.15;;;12.65;;
23670;SDS011;12012;51.998;7.614;2023-05-07T09:51:01;13.20;;;11.80;;
23670;SDS011;12012;51.998;7.614;2023-05-07T09:53:29;13.55;;;11.95;;
23670;SDS011;12012;51.998;7.614;2023-05-07T09:55:56;13.73;;;11.73;;
23670;SDS011;12012;51.998;7.614;2023-05-07T09:58:23;12.90;;;11.60;;
23670;SDS011;12012;51.998;7.614;2023-05-07T10:00:50;14.15;;;12.45;;
23670;SDS011;12012;51.998;7.614;2023-05-07T10:03:17;15.18;;;13.68;;
23670;SDS011;12012;51.998;7.614;2023-05-07T10:05:45;11.88;;;10.70;;
23670;SDS011;12012;51.998;7.614;2023-05-07T10:08:12;13.27;;;11.88;;
23670;SDS011;12012;51.998;7.614;2023-05-07T10:10:39;11.27;;;10.07;;
23670;SDS011;12012;51.998;7.614;2023-05-07T10:13:06;10.88;;;9.60;;
23670;SDS011;12012;51.998;7.614;2023-05-07T10:15:35;11.90;;;10.57;;
23670;SDS011;12012;51.998;7.614;2023-05-07T10:18:02;11.82;;;10.05;;
23670;SDS011;12012;51.998;7.614;2023-05-07T10:20:28;13.48;;;11.30;;
23670;SDS011;12012;51.998;7.614;2023-05-07T10:22:54;12.18;;;10.82;;
23670;SDS011;12012;51.998;7.614;2023-05-07T10:25:30;12.23;;;9.82;;
23670;SDS011;12012;51.998;7.614;2023-05-07T10:27:59;13.05;;;11.50;;
23670;SDS011;12012;51.998;7.614;2023-05-07T10:33:16;10.30;;;9.13;;
23670;SDS011;12012;51.998;7.614;2023-05-07T10:35:44;10.45;;;9.40;;
23670;SDS011;12012;51.998;7.614;2023-05-07T10:38:11;11.50;;;10.32;;
23670;SDS011;12012;51.998;7.614;2023-05-07T10:40:37;9.43;;;8.52;;
23670;SDS011;12012;51.998;7.614;2023-05-07T10:43:03;11.73;;;10.52;;
23670;SDS011;12012;51.998;7.614;2023-05-07T10:45:30;11.95;;;10.23;;
23670;SDS011;12012;51.998;7.614;2023-05-07T10:48:09;9.70;;;8.80;;
23670;SDS011;12012;51.998;7.614;2023-05-07T10:50:37;10.00;;;8.90;;
23670;SDS011;12012;51.998;7.614;2023-05-07T10:55:42;10.55;;;9.45;;
23670;SDS011;12012;51.998;7.614;2023-05-07T11:03:12;7.72;;;7.00;;
23670;SDS011;12012;51.998;7.614;2023-05-07T11:05:39;9.27;;;8.45;;
23670;SDS011;12012;51.998;7.614;2023-05-07T11:08:06;7.90;;;7.05;;
23670;SDS011;12012;51.998;7.614;2023-05-07T11:10:47;7.13;;;6.53;;
23670;SDS011;12012;51.998;7.614;2023-05-07T11:13:14;9.88;;;8.88;;
23670;SDS011;12012;51.998;7.614;2023-05-07T11:15:47;9.50;;;8.50;;
23670;SDS011;12012;51.998;7.614;2023-05-07T11:18:14;8.80;;;7.93;;
23670;SDS011;12012;51.998;7.614;2023-05-07T11:26:07;8.93;;;8.05;;
23670;SDS011;12012;51.998;7.614;2023-05-07T11:28:40;8.23;;;7.32;;
23670;SDS011;12012;51.998;7.614;2023-05-07T11:31:06;7.20;;;6.50;;
23670;SDS011;12012;51.998;7.614;2023-05-07T11:33:33;6.18;;;5.30;;
23670;SDS011;12012;51.998;7.614;2023-05-07T11:35:59;7.85;;;7.15;;
23670;SDS011;12012;51.998;7.614;2023-05-07T11:38:27;6.63;;;6.03;;
23670;SDS011;12012;51.998;7.614;2023-05-07T11:40:55;7.10;;;6.28;;
23670;SDS011;12012;51.998;7.614;2023-05-07T11:43:22;7.93;;;6.68;;
23670;SDS011;12012;51.998;7.614;2023-05-07T11:45:48;8.00;;;7.20;;
23670;SDS011;12012;51.998;7.614;2023-05-07T11:48:15;7.53;;;6.28;;
23670;SDS011;12012;51.998;7.614;2023-05-07T11:50:51;5.22;;;4.72;;
23670;SDS011;12012;51.998;7.614;2023-05-07T11:53:20;6.22;;;5.63;;
23670;SDS011;12012;51.998;7.614;2023-05-07T11:55:52;6.72;;;5.95;;
23670;SDS011;12012;51.998;7.614;2023-05-07T11:58:21;6.38;;;5.72;;
23670;SDS011;12012;51.998;7.614;2023-05-07T12:00:48;6.03;;;5.50;;
23670;SDS011;12012;51.998;7.614;2023-05-07T12:03:15;8.02;;;5.75;;
23670;SDS011;12012;51.998;7.614;2023-05-07T12:05:40;6.07;;;5.50;;
23670;SDS011;12012;51.998;7.614;2023-05-07T12:08:06;4.68;;;4.35;;
23670;SDS011;12012;51.998;7.614;2023-05-07T12:10:32;4.68;;;4.25;;
23670;SDS011;12012;51.998;7.614;2023-05-07T12:12:58;6.38;;;4.93;;
23670;SDS011;12012;51.998;7.614;2023-05-07T12:15:23;6.65;;;5.60;;
23670;SDS011;12012;51.998;7.614;2023-05-07T12:17:49;5.75;;;5.25;;
23670;SDS011;12012;51.998;7.614;2023-05-07T12:20:15;5.35;;;4.30;;
23670;SDS011;12012;51.998;7.614;2023-05-07T12:22:42;4.53;;;4.10;;
23670;SDS011;12012;51.998;7.614;2023-05-07T12:25:08;5.75;;;4.55;;
23670;SDS011;12012;51.998;7.614;2023-05-07T12:27:36;6.85;;;6.25;;
23670;SDS011;12012;51.998;7.614;2023-05-07T12:30:03;5.65;;;4.70;;
23670;SDS011;12012;51.998;7.614;2023-05-07T12:32:28;5.22;;;4.82;;
23670;SDS011;12012;51.998;7.614;2023-05-07T12:34:54;5.45;;;4.95;;
23670;SDS011;12012;51.998;7.614;2023-05-07T12:37:26;7.07;;;6.45;;
23670;SDS011;12012;51.998;7.614;2023-05-07T12:40:08;6.43;;;5.82;;
23670;SDS011;12012;51.998;7.614;2023-05-07T12:42:35;4.88;;;4.38;;
23670;SDS011;12012;51.998;7.614;2023-05-07T12:45:11;6.35;;;5.75;;
23670;SDS011;12012;51.998;7.614;2023-05-07T12:47:37;7.13;;;6.40;;
23670;SDS011;12012;51.998;7.614;2023-05-07T12:50:05;5.03;;;4.15;;
23670;SDS011;12012;51.998;7.614;2023-05-07T12:52:31;5.68;;;5.13;;
23670;SDS011;12012;51.998;7.614;2023-05-07T12:55:03;5.88;;;5.32;;
23670;SDS011;12012;51.998;7.614;2023-05-07T12:57:42;4.55;;;4.15;;
23670;SDS011;12012;51.998;7.614;2023-05-07T13:00:18;4.38;;;3.95;;
23670;SDS011;12012;51.998;7.614;2023-05-07T13:02:58;5.93;;;5.43;;
23670;SDS011;12012;51.998;7.614;2023-05-07T13:05:23;5.00;;;4.60;;
23670;SDS011;12012;51.998;7.614;2023-05-07T13:07:56;13.38;;;8.93;;
23670;SDS011;12012;51.998;7.614;2023-05-07T13:10:22;11.02;;;6.60;;
23670;SDS011;12012;51.998;7.614;2023-05-07T13:12:48;24.08;;;11.77;;
23670;SDS011;12012;51.998;7.614;2023-05-07T13:15:14;29.20;;;12.90;;
23670;SDS011;12012;51.998;7.614;2023-05-07T13:17:40;24.42;;;11.43;;
23670;SDS011;12012;51.998;7.614;2023-05-07T13:20:06;55.70;;;22.88;;
23670;SDS011;12012;51.998;7.614;2023-05-07T13:22:34;37.83;;;16.25;;
23670;SDS011;12012;51.998;7.614;2023-05-07T13:24:59;33.85;;;15.07;;
23670;SDS011;12012;51.998;7.614;2023-05-07T13:27:25;31.92;;;14.57;;
23670;SDS011;12012;51.998;7.614;2023-05-07T13:29:51;15.07;;;8.30;;
23670;SDS011;12012;51.998;7.614;2023-05-07T13:32:16;11.23;;;6.80;;
23670;SDS011;12012;51.998;7.614;2023-05-07T13:34:42;13.02;;;7.70;;
23670;SDS011;12012;51.998;7.614;2023-05-07T13:37:08;6.53;;;5.75;;
23670;SDS011;12012;51.998;7.614;2023-05-07T13:39:33;6.65;;;5.15;;
23670;SDS011;12012;51.998;7.614;2023-05-07T13:41:59;6.32;;;5.22;;
23670;SDS011;12012;51.998;7.614;2023-05-07T13:44:24;9.32;;;7.18;;
23670;SDS011;12012;51.998;7.614;2023-05-07T13:46:50;7.82;;;6.88;;
23670;SDS011;12012;51.998;7.614;2023-05-07T13:49:16;7.82;;;6.53;;
23670;SDS011;12012;51.998;7.614;2023-05-07T13:51:41;16.25;;;8.80;;
23670;SDS011;12012;51.998;7.614;2023-05-07T13:54:07;18.17;;;9.60;;
23670;SDS011;12012;51.998;7.614;2023-05-07T13:56:33;9.10;;;5.97;;
23670;SDS011;12012;51.998;7.614;2023-05-07T13:58:58;6.07;;;5.35;;
23670;SDS011;12012;51.998;7.614;2023-05-07T14:01:24;7.07;;;5.45;;
23670;SDS011;12012;51.998;7.614;2023-05-07T14:03:50;19.75;;;10.55;;
23670;SDS011;12012;51.998;7.614;2023-05-07T14:06:15;15.55;;;8.05;;
23670;SDS011;12012;51.998;7.614;2023-05-07T14:08:41;7.53;;;5.85;;
23670;SDS011;12012;51.998;7.614;2023-05-07T14:11:06;8.73;;;7.03;;
23670;SDS011;12012;51.998;7.614;2023-05-07T14:13:32;6.22;;;5.60;;
23670;SDS011;12012;51.998;7.614;2023-05-07T14:15:59;6.05;;;4.90;;
23670;SDS011;12012;51.998;7.614;2023-05-07T14:18:25;7.40;;;6.00;;
23670;SDS011;12012;51.998;7.614;2023-05-07T14:20:51;6.78;;;5.25;;
23670;SDS011;12012;51.998;7.614;2023-05-07T14:23:17;8.65;;;5.72;;
23670;SDS011;12012;51.998;7.614;2023-05-07T14:25:44;14.40;;;8.18;;
23670;SDS011;12012;51.998;7.614;2023-05-07T14:28:11;5.47;;;4.97;;
23670;SDS011;12012;51.998;7.614;2023-05-07T14:30:36;6.28;;;5.68;;
23670;SDS011;12012;51.998;7.614;2023-05-07T14:33:02;5.95;;;5.35;;
23670;SDS011;12012;51.998;7.614;2023-05-07T14:35:27;6.78;;;4.85;;
23670;SDS011;12012;51.998;7.614;2023-05-07T14:37:54;7.13;;;5.93;;
23670;SDS011;12012;51.998;7.614;2023-05-07T14:40:20;6.43;;;5.22;;
23670;SDS011;12012;51.998;7.614;2023-05-07T14:42:45;6.10;;;5.50;;